Time;durP1;ratioP1;P1;durP2;ratioP2;P2;SDS_P1;SDS_P2;PMS_P1;PMS_P2;Temp;Humidity;BMP_temperature;BMP_pressure;BME280_temperature;BME280_humidity;BME280_pressure;Samples;Min_cycle;Max_cycle;Signal;HPM_P1;HPM_P2
2021/10/04 00:02:01;;;;;;;4.88;2.58;;;13.20;99.90;;;;;;5043211;28;20140;-81
2021/10/04 00:04:29;;;;;;;2.92;2.28;;;13.10;99.90;;;;;;5041723;28;20304;-81
2021/10/04 00:06:56;;;;;;;2.92;2.60;;;13.10;99.90;;;;;;5041269;28;20053;-81
2021/10/04 00:09:23;;;;;;;3.42;2.58;;;13.10;99.90;;;;;;5038587;28;20519;-81
2021/10/04 00:11:50;;;;;;;5.15;2.72;;;13.10;99.90;;;;;;5038918;28;20117;-81
2021/10/04 00:14:20;;;;;;;5.35;2.35;;;13.10;99.90;;;;;;5038577;28;20419;-83
2021/10/04 00:16:49;;;;;;;3.65;2.80;;;13.00;99.90;;;;;;5040501;28;20115;-82
2021/10/04 00:19:16;;;;;;;3.42;2.50;;;13.00;99.90;;;;;;5040013;28;20132;-81
2021/10/04 00:21:43;;;;;;;4.45;2.90;;;13.00;99.90;;;;;;5039995;28;20049;-82
2021/10/04 00:24:10;;;;;;;4.32;2.53;;;13.00;99.90;;;;;;5040429;28;20049;-81
2021/10/04 00:26:37;;;;;;;4.75;2.78;;;13.00;99.90;;;;;;5040435;28;20109;-80
2021/10/04 00:29:04;;;;;;;5.00;3.13;;;13.00;99.90;;;;;;5043166;28;20132;-81
2021/10/04 00:31:31;;;;;;;5.47;2.67;;;13.00;99.90;;;;;;5042731;28;20132;-80
2021/10/04 00:34:00;;;;;;;5.07;2.97;;;13.00;99.90;;;;;;5039915;28;20088;-81
2021/10/04 00:36:26;;;;;;;3.75;2.72;;;12.90;99.90;;;;;;5034849;28;20140;-80
2021/10/04 00:38:53;;;;;;;3.40;2.60;;;13.00;99.90;;;;;;5037151;28;20056;-79
2021/10/04 00:41:20;;;;;;;4.40;2.83;;;12.90;99.90;;;;;;5036939;28;20092;-81
2021/10/04 00:43:47;;;;;;;4.15;2.70;;;12.90;99.90;;;;;;5035991;28;20053;-80
2021/10/04 00:46:14;;;;;;;4.63;2.40;;;12.90;99.90;;;;;;5035336;28;20131;-81
2021/10/04 00:48:41;;;;;;;3.88;2.47;;;12.80;99.90;;;;;;5035262;28;20417;-81
2021/10/04 00:51:09;;;;;;;5.05;2.80;;;12.80;99.90;;;;;;5036185;28;20080;-81
2021/10/04 00:53:36;;;;;;;3.65;2.65;;;12.80;99.90;;;;;;5036671;28;20088;-80
2021/10/04 00:56:04;;;;;;;2.38;2.17;;;12.80;99.90;;;;;;5036974;28;20135;-82
2021/10/04 00:58:34;;;;;;;5.82;2.85;;;12.80;99.90;;;;;;5037064;28;20476;-83
2021/10/04 01:01:01;;;;;;;4.40;2.55;;;12.80;99.90;;;;;;5038660;28;20132;-81
2021/10/04 01:03:28;;;;;;;4.60;2.78;;;12.80;99.90;;;;;;5043268;28;20109;-82
2021/10/04 01:05:55;;;;;;;2.67;2.40;;;12.70;99.90;;;;;;5040182;28;20533;-81
2021/10/04 01:08:23;;;;;;;4.20;2.80;;;12.70;99.90;;;;;;5036920;28;20045;-81
2021/10/04 01:10:50;;;;;;;3.88;2.42;;;12.70;99.90;;;;;;5036835;28;20060;-80
2021/10/04 01:13:18;;;;;;;3.90;2.70;;;12.70;99.90;;;;;;5036999;28;20096;-80
2021/10/04 01:15:45;;;;;;;2.33;2.13;;;12.70;99.90;;;;;;5038111;28;20052;-80
2021/10/04 01:18:22;;;;;;;5.57;2.53;;;12.80;99.90;;;;;;5037163;28;20162;-81
2021/10/04 01:20:51;;;;;;;4.63;2.55;;;12.80;99.90;;;;;;5036820;28;20084;-81
2021/10/04 01:23:18;;;;;;;3.10;2.40;;;12.80;99.90;;;;;;5036405;28;20514;-80
2021/10/04 01:25:46;;;;;;;4.80;2.85;;;12.80;99.90;;;;;;5037440;28;20111;-81
2021/10/04 01:28:13;;;;;;;3.28;2.45;;;12.80;99.90;;;;;;5037004;28;20057;-81
2021/10/04 01:30:40;;;;;;;3.65;2.50;;;12.80;99.90;;;;;;5036924;28;20080;-81
2021/10/04 01:33:07;;;;;;;5.72;2.88;;;12.90;99.90;;;;;;5038645;28;20107;-80
2021/10/04 01:35:34;;;;;;;4.57;2.80;;;12.80;99.90;;;;;;5038529;28;20136;-82
2021/10/04 01:38:03;;;;;;;5.22;3.30;;;12.90;99.90;;;;;;5038416;28;20068;-84
2021/10/04 01:40:30;;;;;;;7.53;3.33;;;12.90;99.90;;;;;;5037644;28;20132;-81
2021/10/04 01:42:56;;;;;;;5.47;3.35;;;12.90;99.90;;;;;;5037934;28;20080;-83
2021/10/04 01:45:26;;;;;;;5.18;3.10;;;12.90;99.90;;;;;;5039241;28;20125;-83
2021/10/04 01:47:58;;;;;;;5.78;3.08;;;12.80;99.90;;;;;;5038519;28;20088;-81
2021/10/04 01:50:26;;;;;;;7.55;3.17;;;12.80;99.90;;;;;;5038241;28;20128;-82
2021/10/04 01:52:53;;;;;;;6.03;3.22;;;12.80;99.90;;;;;;5040227;28;20105;-81
2021/10/04 01:55:21;;;;;;;4.85;3.10;;;12.80;99.90;;;;;;5041083;28;20117;-81
2021/10/04 01:57:48;;;;;;;6.55;3.42;;;12.80;99.90;;;;;;5041863;28;20060;-81
2021/10/04 02:00:18;;;;;;;7.13;3.25;;;12.70;99.90;;;;;;5040409;28;20096;-81
2021/10/04 02:02:47;;;;;;;4.57;3.40;;;12.80;99.90;;;;;;5038914;28;20498;-81
2021/10/04 02:05:15;;;;;;;5.72;3.20;;;12.80;99.90;;;;;;5038818;28;20133;-81
2021/10/04 02:07:42;;;;;;;5.40;3.65;;;12.80;99.90;;;;;;5038924;28;20085;-82
2021/10/04 02:10:12;;;;;;;7.85;3.28;;;12.80;99.90;;;;;;5038748;28;20556;-83
2021/10/04 02:12:41;;;;;;;4.47;2.88;;;12.80;99.90;;;;;;5038964;28;20128;-83
2021/10/04 02:15:09;;;;;;;4.18;3.20;;;12.80;99.90;;;;;;5040396;28;20128;-83
2021/10/04 02:17:36;;;;;;;8.57;2.95;;;12.80;99.90;;;;;;5040315;28;20088;-83
2021/10/04 02:20:04;;;;;;;4.43;2.97;;;12.70;99.90;;;;;;5039613;28;20113;-82
2021/10/04 02:22:31;;;;;;;5.13;3.15;;;12.70;99.90;;;;;;5040839;28;20060;-84
2021/10/04 02:24:58;;;;;;;5.18;3.10;;;12.70;99.90;;;;;;5038882;28;20147;-82
2021/10/04 02:27:25;;;;;;;6.93;3.33;;;12.70;99.90;;;;;;5039626;28;20503;-81
2021/10/04 02:29:53;;;;;;;6.07;3.63;;;12.60;99.90;;;;;;5040007;28;20108;-82
2021/10/04 02:32:20;;;;;;;4.80;3.03;;;12.60;99.90;;;;;;5039233;28;20597;-83
2021/10/04 02:34:47;;;;;;;3.70;2.75;;;12.60;99.90;;;;;;5043654;28;20050;-82
2021/10/04 02:37:14;;;;;;;4.50;2.65;;;12.60;99.90;;;;;;5044521;28;20105;-82
2021/10/04 02:39:41;;;;;;;6.45;3.10;;;12.60;99.90;;;;;;5046282;28;20085;-81
2021/10/04 02:42:08;;;;;;;4.15;2.60;;;12.60;99.90;;;;;;5043028;28;20056;-82
2021/10/04 02:44:35;;;;;;;4.50;2.80;;;12.60;99.90;;;;;;5042704;28;20055;-81
2021/10/04 02:47:03;;;;;;;4.55;3.00;;;12.60;99.90;;;;;;5043911;28;20050;-80
2021/10/04 02:49:30;;;;;;;4.88;2.97;;;12.60;99.90;;;;;;5043177;28;20604;-82
2021/10/04 02:51:57;;;;;;;4.65;2.97;;;12.60;99.90;;;;;;5043065;28;20103;-81
2021/10/04 02:54:24;;;;;;;6.13;3.17;;;12.60;99.90;;;;;;5043546;28;20113;-82
2021/10/04 02:56:51;;;;;;;7.22;3.10;;;12.60;99.90;;;;;;5043285;28;20105;-83
2021/10/04 02:59:18;;;;;;;5.03;3.00;;;12.60;99.90;;;;;;5043677;28;20103;-82
2021/10/04 03:01:45;;;;;;;5.63;2.97;;;12.60;99.90;;;;;;5042406;28;20124;-82
2021/10/04 03:04:13;;;;;;;5.32;3.10;;;12.60;99.90;;;;;;5042670;28;20423;-84
2021/10/04 03:06:40;;;;;;;3.88;3.10;;;12.60;99.90;;;;;;5042506;28;20212;-83
2021/10/04 03:09:07;;;;;;;5.60;3.40;;;12.60;99.90;;;;;;5042355;28;20083;-83
2021/10/04 03:11:34;;;;;;;5.20;3.40;;;12.60;99.90;;;;;;5042404;28;20046;-82
2021/10/04 03:14:00;;;;;;;4.50;3.13;;;12.60;99.90;;;;;;5041591;28;20132;-83
2021/10/04 03:16:27;;;;;;;4.68;3.38;;;12.50;99.90;;;;;;5042939;28;20048;-81
2021/10/04 03:18:54;;;;;;;6.80;3.20;;;12.50;99.90;;;;;;5044179;28;20053;-83
2021/10/04 03:21:22;;;;;;;8.45;3.33;;;12.50;99.90;;;;;;5044372;28;20077;-82
2021/10/04 03:23:50;;;;;;;6.35;3.40;;;12.50;99.90;;;;;;5044662;28;20240;-83
2021/10/04 03:26:16;;;;;;;6.85;3.65;;;12.50;99.90;;;;;;5044486;28;20068;-82
2021/10/04 03:28:44;;;;;;;4.47;2.95;;;12.50;99.90;;;;;;5044433;28;20109;-83
2021/10/04 03:31:11;;;;;;;5.53;3.13;;;12.60;99.90;;;;;;5044174;28;20121;-83
2021/10/04 03:33:38;;;;;;;5.50;2.90;;;12.60;99.90;;;;;;5045747;28;20113;-80
2021/10/04 03:36:05;;;;;;;3.58;3.22;;;12.60;99.90;;;;;;5046575;28;20101;-83
2021/10/04 03:38:33;;;;;;;3.63;3.10;;;12.60;99.90;;;;;;5041817;28;20049;-82
2021/10/04 03:41:00;;;;;;;3.45;3.05;;;12.60;99.90;;;;;;5042549;28;20139;-80
2021/10/04 03:43:27;;;;;;;5.38;3.08;;;12.60;99.90;;;;;;5048873;28;20046;-82
2021/10/04 03:45:54;;;;;;;6.05;3.28;;;12.60;99.90;;;;;;5043397;28;20105;-82
2021/10/04 03:48:21;;;;;;;5.00;3.25;;;12.60;99.90;;;;;;5043933;28;20132;-82
2021/10/04 03:50:48;;;;;;;5.15;3.33;;;12.50;99.90;;;;;;5043569;28;20498;-82
2021/10/04 03:53:15;;;;;;;6.05;3.35;;;12.50;99.90;;;;;;5044572;28;20109;-83
2021/10/04 03:55:43;;;;;;;5.82;3.30;;;12.50;99.90;;;;;;5046080;28;20054;-81
2021/10/04 03:58:11;;;;;;;4.85;3.20;;;12.50;99.90;;;;;;5045877;28;20081;-82
2021/10/04 04:00:37;;;;;;;8.27;3.50;;;12.50;99.90;;;;;;5046642;28;20525;-82
2021/10/04 04:03:05;;;;;;;7.65;3.58;;;12.50;99.90;;;;;;5047664;28;20079;-82
2021/10/04 04:05:33;;;;;;;5.35;3.30;;;12.50;99.90;;;;;;5041384;28;20061;-82
2021/10/04 04:08:00;;;;;;;7.20;3.63;;;12.50;99.90;;;;;;5044858;28;20053;-81
2021/10/04 04:10:27;;;;;;;5.40;3.50;;;12.50;99.90;;;;;;5045026;28;20076;-82
2021/10/04 04:12:55;;;;;;;5.82;3.30;;;12.50;99.90;;;;;;5045975;28;20147;-82
2021/10/04 04:15:22;;;;;;;4.38;3.13;;;12.50;99.90;;;;;;5046831;28;20128;-82
2021/10/04 04:17:49;;;;;;;4.93;3.20;;;12.50;99.90;;;;;;5045463;28;20137;-82
2021/10/04 04:20:16;;;;;;;5.38;3.25;;;12.50;99.90;;;;;;5045589;28;20084;-82
2021/10/04 04:22:44;;;;;;;6.47;3.50;;;12.50;99.90;;;;;;5046016;28;20398;-82
2021/10/04 04:25:12;;;;;;;4.53;3.47;;;12.50;99.90;;;;;;5043493;28;20529;-81
2021/10/04 04:27:40;;;;;;;6.63;4.05;;;12.50;99.90;;;;;;5044910;28;20128;-82
2021/10/04 04:30:10;;;;;;;5.90;3.60;;;12.50;99.90;;;;;;5043949;28;20208;-80
2021/10/04 04:32:39;;;;;;;4.25;3.40;;;12.50;99.90;;;;;;5044988;28;20481;-82
2021/10/04 04:35:07;;;;;;;7.07;3.40;;;12.50;99.90;;;;;;5042097;28;20084;-80
2021/10/04 04:37:34;;;;;;;5.18;3.33;;;12.50;99.90;;;;;;5042452;28;20064;-81
2021/10/04 04:40:02;;;;;;;6.82;3.60;;;12.50;99.90;;;;;;5041896;28;20137;-82
2021/10/04 04:42:28;;;;;;;4.68;3.53;;;12.50;99.90;;;;;;5041011;28;20072;-81
2021/10/04 04:44:55;;;;;;;5.63;4.07;;;12.60;99.90;;;;;;5042346;28;20099;-81
2021/10/04 04:47:24;;;;;;;8.13;3.15;;;12.60;99.90;;;;;;5043192;28;20087;-81
2021/10/04 04:49:50;;;;;;;4.57;3.22;;;12.60;99.90;;;;;;5048968;28;20117;-81
2021/10/04 04:52:17;;;;;;;7.40;3.42;;;12.60;99.90;;;;;;5033241;28;20467;-81
2021/10/04 04:54:44;;;;;;;6.85;3.72;;;12.60;99.90;;;;;;5027153;28;20064;-81
2021/10/04 04:57:14;;;;;;;5.80;3.42;;;12.60;99.90;;;;;;5026972;28;20101;-80
2021/10/04 04:59:48;;;;;;;6.97;3.30;;;12.60;99.90;;;;;;5022939;28;20073;-81
2021/10/04 05:09:33;;;;;;;5.28;3.50;;;12.50;99.90;;;;;;4999020;28;20061;-82
2021/10/04 05:18:49;;;;;;;6.82;3.58;;;12.50;99.90;;;;;;5030159;28;20049;-81
2021/10/04 05:21:31;;;;;;;7.38;3.45;;;12.60;99.90;;;;;;5041752;28;20049;-82
2021/10/04 05:26:45;;;;;;;5.03;3.28;;;12.50;99.90;;;;;;4676321;26;20081;-79
2021/10/04 05:29:14;;;;;;;5.68;3.80;;;12.60;99.90;;;;;;5034166;28;20046;-81
2021/10/04 05:31:44;;;;;;;7.05;3.65;;;12.50;99.90;;;;;;5033152;28;20061;-82
2021/10/04 05:34:17;;;;;;;6.13;3.75;;;12.50;99.90;;;;;;5034531;28;20065;-83
2021/10/04 05:36:46;;;;;;;4.82;3.80;;;12.50;99.90;;;;;;5034311;28;20032;-82
2021/10/04 05:39:13;;;;;;;8.70;3.67;;;12.50;99.90;;;;;;5032310;28;20042;-81
2021/10/04 05:41:40;;;;;;;4.43;3.60;;;12.50;99.90;;;;;;5025440;28;20050;-81
2021/10/04 05:44:07;;;;;;;4.50;3.50;;;12.50;99.90;;;;;;5020841;28;20080;-81
2021/10/04 05:46:34;;;;;;;6.28;3.83;;;12.50;99.90;;;;;;5020533;28;20072;-80
2021/10/04 05:49:01;;;;;;;5.85;3.67;;;12.60;99.90;;;;;;5020402;28;20136;-80
2021/10/04 05:51:28;;;;;;;7.75;3.90;;;12.60;99.90;;;;;;5018893;28;20077;-81
2021/10/04 05:53:56;;;;;;;8.20;4.15;;;12.60;99.90;;;;;;5018799;28;20110;-80
2021/10/04 05:56:23;;;;;;;6.20;4.28;;;12.60;99.90;;;;;;5019925;28;20121;-82
2021/10/04 05:58:50;;;;;;;16.58;4.13;;;12.60;99.90;;;;;;5020557;28;20113;-81
2021/10/04 06:01:17;;;;;;;6.38;4.10;;;12.60;99.90;;;;;;5018286;28;20137;-80
2021/10/04 06:03:44;;;;;;;12.18;4.60;;;12.60;99.90;;;;;;5019518;28;20046;-81
2021/10/04 06:06:11;;;;;;;7.13;3.90;;;12.70;99.90;;;;;;5020102;28;20117;-82
2021/10/04 06:08:38;;;;;;;8.15;4.30;;;12.70;99.90;;;;;;5018006;28;20097;-81
2021/10/04 06:11:06;;;;;;;5.90;4.13;;;12.70;99.90;;;;;;5017735;28;20168;-80
2021/10/04 06:13:33;;;;;;;6.82;4.10;;;12.70;99.90;;;;;;5017815;28;20113;-81
2021/10/04 06:16:00;;;;;;;9.63;4.00;;;12.70;99.90;;;;;;5033588;28;20038;-82
2021/10/04 06:18:27;;;;;;;9.82;3.35;;;12.70;99.90;;;;;;5025581;28;20049;-82
2021/10/04 06:20:54;;;;;;;5.63;3.15;;;12.70;99.90;;;;;;5026060;28;20054;-82
2021/10/04 06:23:21;;;;;;;7.25;3.42;;;12.80;99.90;;;;;;5030302;28;20136;-81
2021/10/04 06:25:48;;;;;;;7.63;3.42;;;12.80;99.90;;;;;;5019058;28;20077;-82
2021/10/04 06:28:16;;;;;;;5.82;2.75;;;12.80;99.90;;;;;;5019533;28;20077;-83
2021/10/04 06:30:43;;;;;;;5.63;2.95;;;12.90;99.90;;;;;;5019963;28;20114;-81
2021/10/04 06:33:10;;;;;;;8.10;2.97;;;12.90;99.90;;;;;;5019578;28;20061;-82
2021/10/04 06:35:37;;;;;;;4.28;3.10;;;13.00;99.90;;;;;;5019592;28;20089;-83
2021/10/04 06:38:04;;;;;;;4.38;2.88;;;13.00;99.90;;;;;;5018211;28;20052;-79
2021/10/04 06:40:31;;;;;;;4.90;2.83;;;13.10;99.90;;;;;;5020449;28;20089;-80
2021/10/04 06:42:58;;;;;;;4.90;3.58;;;13.10;99.90;;;;;;5018289;28;20148;-81
2021/10/04 06:45:26;;;;;;;6.13;3.47;;;13.20;99.90;;;;;;5018109;28;20140;-82
2021/10/04 06:47:53;;;;;;;5.55;2.95;;;13.20;99.90;;;;;;5018610;28;20133;-80
2021/10/04 06:50:20;;;;;;;7.75;3.08;;;13.20;99.90;;;;;;5019268;28;20313;-81
2021/10/04 06:52:46;;;;;;;11.50;4.00;;;13.30;99.90;;;;;;5020046;28;20105;-81
2021/10/04 06:55:14;;;;;;;20.50;4.38;;;13.30;99.90;;;;;;5020021;28;20140;-82
2021/10/04 06:57:41;;;;;;;35.53;4.93;;;13.40;99.90;;;;;;5020395;28;20202;-81
2021/10/04 07:00:11;;;;;;;18.70;3.50;;;13.40;99.90;;;;;;5021056;28;20050;-82
2021/10/04 07:02:39;;;;;;;4.88;2.90;;;13.50;99.90;;;;;;5020821;28;20089;-81
2021/10/04 07:05:07;;;;;;;14.73;3.22;;;13.50;99.90;;;;;;5021119;28;20141;-82
2021/10/04 07:07:34;;;;;;;7.35;3.80;;;13.50;99.90;;;;;;5019846;28;20050;-81
2021/10/04 07:10:01;;;;;;;64.10;7.78;;;13.60;99.90;;;;;;5021515;28;20110;-81
2021/10/04 07:12:28;;;;;;;17.27;4.72;;;13.70;99.90;;;;;;5020835;28;20049;-82
2021/10/04 07:14:55;;;;;;;5.45;2.97;;;13.80;99.90;;;;;;5019302;28;20133;-81
2021/10/04 07:17:22;;;;;;;11.60;3.17;;;14.00;99.90;;;;;;5020513;28;20042;-81
2021/10/04 07:19:50;;;;;;;5.47;2.90;;;14.20;99.90;;;;;;5023704;28;20089;-81
2021/10/04 07:22:17;;;;;;;20.98;4.93;;;14.20;99.90;;;;;;5024490;28;20046;-81
2021/10/04 07:24:44;;;;;;;11.27;3.50;;;14.30;99.90;;;;;;5023231;28;20081;-81
2021/10/04 07:27:11;;;;;;;21.73;4.45;;;14.40;99.90;;;;;;5023065;28;20052;-81
2021/10/04 07:29:38;;;;;;;4.47;2.78;;;14.50;99.90;;;;;;5023066;28;20136;-80
2021/10/04 07:32:05;;;;;;;7.95;2.70;;;14.50;99.90;;;;;;5024437;28;20109;-82
2021/10/04 07:34:33;;;;;;;5.75;2.80;;;14.50;99.90;;;;;;5023636;28;20072;-81
2021/10/04 07:37:03;;;;;;;62.35;9.57;;;14.50;99.90;;;;;;5023593;28;20046;-82
2021/10/04 07:39:31;;;;;;;8.98;2.90;;;14.50;99.90;;;;;;5020674;28;20068;-81
2021/10/04 07:41:58;;;;;;;6.03;2.80;;;14.50;99.90;;;;;;5021376;28;20053;-81
2021/10/04 07:44:26;;;;;;;19.02;4.13;;;14.50;99.90;;;;;;5021073;28;20129;-79
2021/10/04 07:46:57;;;;;;;14.10;4.05;;;14.50;99.90;;;;;;5022790;28;20053;-81
2021/10/04 07:49:25;;;;;;;6.82;2.78;;;14.50;99.90;;;;;;5024510;28;20054;-81
2021/10/04 07:51:52;;;;;;;5.47;2.97;;;14.50;99.90;;;;;;5025239;28;20058;-82
2021/10/04 07:54:20;;;;;;;4.90;2.83;;;14.60;99.90;;;;;;5023288;28;20112;-79
2021/10/04 07:56:47;;;;;;;5.20;3.03;;;14.60;99.90;;;;;;5021470;28;20516;-79
2021/10/04 07:59:14;;;;;;;5.07;2.55;;;14.70;99.90;;;;;;5020800;28;20053;-78
2021/10/04 08:01:41;;;;;;;5.05;2.75;;;14.70;99.90;;;;;;5021987;28;20133;-79
2021/10/04 08:04:08;;;;;;;6.68;2.80;;;14.80;99.90;;;;;;5020722;28;20130;-79
2021/10/04 08:06:35;;;;;;;5.03;2.50;;;14.90;99.90;;;;;;5021230;28;20136;-79
2021/10/04 08:09:01;;;;;;;4.13;2.65;;;14.90;99.90;;;;;;5020601;28;20109;-79
2021/10/04 08:11:30;;;;;;;4.53;2.97;;;15.00;99.90;;;;;;5022325;28;20446;-80
2021/10/04 08:13:56;;;;;;;9.13;3.80;;;15.00;99.90;;;;;;5023144;28;20132;-78
2021/10/04 08:16:24;;;;;;;6.45;2.83;;;15.00;99.90;;;;;;5019216;28;20050;-80
2021/10/04 08:18:52;;;;;;;7.28;2.80;;;15.00;99.90;;;;;;5018746;28;20422;-79
2021/10/04 08:21:21;;;;;;;7.38;3.00;;;15.10;99.90;;;;;;5019479;28;20439;-82
2021/10/04 08:23:50;;;;;;;3.30;2.60;;;15.00;99.90;;;;;;5020553;28;20081;-80
2021/10/04 08:26:17;;;;;;;3.45;2.92;;;15.00;99.90;;;;;;5019937;28;20132;-81
2021/10/04 08:28:46;;;;;;;5.35;2.97;;;14.90;99.90;;;;;;5020562;28;20065;-80
2021/10/04 08:31:13;;;;;;;5.60;3.20;;;14.90;99.90;;;;;;5019156;28;20068;-81
2021/10/04 08:33:40;;;;;;;6.75;3.38;;;15.00;99.90;;;;;;5020372;28;20101;-81
2021/10/04 08:36:07;;;;;;;5.40;3.35;;;15.00;99.90;;;;;;5021072;28;20060;-81
2021/10/04 08:38:34;;;;;;;5.82;3.55;;;15.00;99.90;;;;;;5022194;28;20077;-81
2021/10/04 08:41:02;;;;;;;6.28;4.00;;;15.00;99.90;;;;;;5022117;28;20471;-82
2021/10/04 08:43:29;;;;;;;6.88;3.67;;;15.00;99.90;;;;;;5021988;28;20144;-81
2021/10/04 08:46:02;;;;;;;6.00;3.80;;;15.00;99.90;;;;;;5021729;28;20153;-81
2021/10/04 08:48:29;;;;;;;7.63;4.10;;;15.00;99.90;;;;;;5022884;28;20132;-81
2021/10/04 08:50:56;;;;;;;21.00;5.55;;;15.20;99.90;;;;;;5022022;28;20052;-82
2021/10/04 08:53:24;;;;;;;9.38;4.50;;;15.40;99.90;;;;;;5021783;28;20073;-82
2021/10/04 08:55:51;;;;;;;12.57;5.85;;;15.50;99.90;;;;;;5021334;28;20081;-82
2021/10/04 08:58:18;;;;;;;4.55;3.40;;;15.60;99.90;;;;;;5021793;28;20054;-82
2021/10/04 09:00:45;;;;;;;8.23;4.10;;;15.70;99.90;;;;;;5021904;28;20137;-81
2021/10/04 09:03:13;;;;;;;9.05;3.88;;;15.90;99.90;;;;;;5020514;28;20137;-82
2021/10/04 09:05:44;;;;;;;9.57;3.90;;;16.00;99.90;;;;;;5020740;28;20065;-80
2021/10/04 09:08:12;;;;;;;10.57;3.88;;;16.10;99.90;;;;;;5021658;28;20045;-81
2021/10/04 09:10:41;;;;;;;9.50;3.97;;;16.20;99.90;;;;;;5022192;28;20049;-82
2021/10/04 09:13:10;;;;;;;11.48;3.70;;;16.30;99.90;;;;;;5021156;28;20136;-80
2021/10/04 09:16:36;;;;;;;8.15;3.30;;;16.20;99.90;;;;;;5077663;23;20217;-81
2021/10/04 09:19:39;;;;;;;7.43;3.40;;;16.10;99.90;;;;;;5021756;28;20053;-81
2021/10/04 09:22:27;;;;;;;4.72;3.30;;;16.20;99.90;;;;;;5021986;28;20490;-81
2021/10/04 09:27:44;;;;;;;5.97;3.30;;;16.30;99.90;;;;;;3159778;26;20079;-80
2021/10/04 09:30:32;;;;;;;7.28;3.60;;;16.40;99.90;;;;;;5058734;28;20056;-82
2021/10/04 09:33:11;;;;;;;8.77;4.60;;;16.50;99.90;;;;;;5058948;28;20053;-79
2021/10/04 09:39:36;;;;;;;9.68;3.70;;;16.60;99.90;;;;;;5048613;23;20045;-81
2021/10/04 09:42:11;;;;;;;6.18;3.50;;;16.60;99.90;;;;;;5027347;28;20459;-80
2021/10/04 09:44:48;;;;;;;10.18;4.40;;;16.70;99.90;;;;;;5015634;28;20053;-79
2021/10/04 09:47:17;;;;;;;11.77;3.90;;;16.80;99.90;;;;;;5014412;28;20045;-80
2021/10/04 09:49:53;;;;;;;6.13;3.80;;;16.80;99.90;;;;;;5014208;28;20054;-78
2021/10/04 09:52:40;;;;;;;5.85;4.30;;;16.80;99.90;;;;;;5014468;28;20133;-79
2021/10/04 09:55:25;;;;;;;7.95;4.93;;;16.90;99.90;;;;;;5014321;28;20060;-79
2021/10/04 09:57:55;;;;;;;7.85;4.05;;;16.90;99.90;;;;;;5015446;28;20169;-80
2021/10/04 10:00:22;;;;;;;13.88;4.03;;;17.00;99.90;;;;;;5019111;28;20069;-80
2021/10/04 10:02:56;;;;;;;13.55;4.32;;;16.90;99.90;;;;;;5016406;28;20073;-79
2021/10/04 10:05:24;;;;;;;6.18;3.78;;;16.90;99.90;;;;;;5015710;28;20132;-80
2021/10/04 10:07:53;;;;;;;10.77;4.18;;;16.80;99.90;;;;;;5015033;28;20128;-80
2021/10/04 10:10:20;;;;;;;6.80;3.90;;;16.80;99.90;;;;;;5015402;28;20136;-80
2021/10/04 10:12:47;;;;;;;7.30;3.83;;;16.70;99.90;;;;;;5015141;28;20137;-80
2021/10/04 10:15:22;;;;;;;7.75;3.80;;;16.70;99.90;;;;;;5014782;28;20137;-79
2021/10/04 10:17:51;;;;;;;7.63;4.55;;;16.80;99.90;;;;;;5014163;28;20594;-81
2021/10/04 10:20:21;;;;;;;7.13;4.40;;;16.90;99.90;;;;;;5014356;28;20057;-80
2021/10/04 10:22:50;;;;;;;7.00;3.72;;;17.00;99.90;;;;;;5014852;28;20153;-79
2021/10/04 10:25:38;;;;;;;8.82;4.32;;;17.20;99.90;;;;;;5014322;28;20054;-80
2021/10/04 10:28:27;;;;;;;8.48;3.63;;;17.30;99.90;;;;;;5015479;28;20464;-82
2021/10/04 10:30:54;;;;;;;9.40;3.58;;;17.30;99.90;;;;;;5015623;28;20053;-78
2021/10/04 10:33:46;;;;;;;6.95;4.03;;;17.40;99.90;;;;;;5014123;28;20576;-79
2021/10/04 10:36:14;;;;;;;12.32;4.10;;;17.40;99.90;;;;;;5014759;28;20062;-80
2021/10/04 10:39:04;;;;;;;8.02;3.40;;;17.40;99.90;;;;;;5015050;28;20053;-79
2021/10/04 10:41:32;;;;;;;9.50;3.90;;;17.40;99.90;;;;;;5014895;28;20049;-79
2021/10/04 10:44:09;;;;;;;6.65;3.15;;;17.40;99.90;;;;;;5015162;28;20113;-81
2021/10/04 10:46:51;;;;;;;4.63;3.30;;;17.50;99.90;;;;;;5016436;28;20061;-81
2021/10/04 10:49:55;;;;;;;8.70;3.88;;;17.50;99.90;;;;;;5014991;28;20161;-79
2021/10/04 10:52:25;;;;;;;10.48;4.10;;;17.60;99.90;;;;;;5014617;28;20390;-79
2021/10/04 10:54:53;;;;;;;4.63;3.20;;;17.70;99.90;;;;;;5016666;28;20081;-79
2021/10/04 10:57:23;;;;;;;5.95;3.63;;;17.90;99.90;;;;;;5018879;28;20057;-79
2021/10/04 11:00:18;;;;;;;7.72;3.15;;;18.00;99.90;;;;;;5018977;28;20469;-77
2021/10/04 11:02:50;;;;;;;7.45;3.47;;;18.00;99.90;;;;;;5021326;28;20092;-80
2021/10/04 11:05:52;;;;;;;6.10;3.40;;;18.10;99.90;;;;;;5018198;28;20117;-80
2021/10/04 11:08:23;;;;;;;17.05;4.20;;;18.00;99.90;;;;;;5018825;28;20060;-80
2021/10/04 11:11:09;;;;;;;8.27;3.72;;;18.00;99.90;;;;;;5019659;28;20057;-80
2021/10/04 11:13:38;;;;;;;6.45;3.92;;;18.00;99.90;;;;;;5019771;28;20109;-79
2021/10/04 11:16:30;;;;;;;9.70;4.22;;;18.10;99.90;;;;;;5017783;28;20070;-80
2021/10/04 11:18:57;;;;;;;5.17;3.10;;;18.20;99.90;;;;;;5017283;28;20064;-79
2021/10/04 11:21:27;;;;;;;4.72;3.05;;;18.20;99.90;;;;;;5020683;28;20128;-81
2021/10/04 11:23:57;;;;;;;8.35;4.43;;;18.30;99.90;;;;;;5022267;28;20050;-81
2021/10/04 11:26:24;;;;;;;8.80;3.25;;;18.40;99.90;;;;;;5017496;28;20061;-79
2021/10/04 11:28:57;;;;;;;7.35;3.65;;;18.50;99.90;;;;;;5017302;28;20514;-80
2021/10/04 11:31:26;;;;;;;5.03;3.28;;;18.50;99.90;;;;;;5016773;28;20144;-80
2021/10/04 11:33:54;;;;;;;5.18;3.17;;;18.60;99.90;;;;;;5018268;28;20238;-79
2021/10/04 11:36:24;;;;;;;6.18;3.35;;;18.70;99.90;;;;;;5019117;28;20133;-81
2021/10/04 11:38:53;;;;;;;4.90;3.00;;;18.70;99.90;;;;;;5019969;28;20052;-80
2021/10/04 11:41:25;;;;;;;8.10;3.20;;;18.80;99.90;;;;;;5019134;28;20058;-81
2021/10/04 11:43:55;;;;;;;5.07;3.13;;;18.80;99.90;;;;;;5019046;28;20104;-80
2021/10/04 11:46:27;;;;;;;11.27;3.53;;;18.80;99.90;;;;;;5017940;28;20049;-80
2021/10/04 11:49:03;;;;;;;6.97;3.50;;;18.90;99.90;;;;;;5019162;28;20050;-80
2021/10/04 11:51:33;;;;;;;57.78;8.82;;;18.80;99.90;;;;;;5018784;28;20137;-81
2021/10/04 11:54:00;;;;;;;8.25;3.47;;;18.70;99.90;;;;;;5021659;28;20136;-79
2021/10/04 11:56:27;;;;;;;10.48;3.30;;;18.70;99.90;;;;;;5022927;28;20153;-80
2021/10/04 11:58:58;;;;;;;7.70;3.38;;;18.70;99.90;;;;;;5023170;28;20118;-79
2021/10/04 12:01:29;;;;;;;6.75;3.42;;;18.70;99.90;;;;;;5023352;28;20109;-81
2021/10/04 12:04:01;;;;;;;7.00;3.70;;;18.70;99.90;;;;;;5024400;28;20081;-79
2021/10/04 12:06:29;;;;;;;6.80;2.90;;;18.70;99.90;;;;;;5019146;28;20122;-80
2021/10/04 12:08:57;;;;;;;5.63;2.42;;;18.90;99.90;;;;;;5020398;28;20053;-79
2021/10/04 12:11:24;;;;;;;5.57;2.92;;;18.90;99.90;;;;;;5020925;28;20082;-81
2021/10/04 12:13:52;;;;;;;5.45;2.67;;;18.80;99.90;;;;;;5019782;28;20052;-80
2021/10/04 12:16:22;;;;;;;4.82;2.60;;;18.90;99.90;;;;;;5018837;28;20203;-80
2021/10/04 12:18:51;;;;;;;8.20;3.10;;;18.90;99.90;;;;;;5020918;28;20106;-80
2021/10/04 12:21:20;;;;;;;7.53;2.80;;;18.80;99.90;;;;;;5020241;28;20084;-81
2021/10/04 12:24:05;;;;;;;4.80;2.72;;;18.80;99.90;;;;;;5020915;28;20510;-78
2021/10/04 12:26:33;;;;;;;7.43;3.08;;;18.90;99.90;;;;;;5018325;28;20045;-80
2021/10/04 12:28:59;;;;;;;7.72;3.22;;;18.90;99.90;;;;;;5017387;28;20137;-79
2021/10/04 12:31:32;;;;;;;8.88;2.70;;;18.90;99.90;;;;;;5015993;28;20061;-80
2021/10/04 12:33:59;;;;;;;4.10;2.33;;;18.90;99.90;;;;;;5014897;28;20060;-79
2021/10/04 12:36:26;;;;;;;7.28;2.97;;;18.80;99.90;;;;;;5015075;28;20082;-78
2021/10/04 12:38:55;;;;;;;7.10;2.53;;;18.90;99.90;;;;;;5015848;28;20420;-79
2021/10/04 12:41:23;;;;;;;8.35;2.80;;;19.00;99.90;;;;;;5015755;28;20085;-80
2021/10/04 12:43:50;;;;;;;5.70;3.50;;;19.10;99.90;;;;;;5015058;28;20049;-79
2021/10/04 12:46:19;;;;;;;4.80;2.78;;;19.00;99.90;;;;;;5015656;28;20136;-79
2021/10/04 12:48:49;;;;;;;9.88;2.88;;;19.10;99.90;;;;;;5015528;28;20066;-79
2021/10/04 12:51:19;;;;;;;5.03;3.42;;;19.10;99.90;;;;;;5016829;28;20089;-79
2021/10/04 12:53:50;;;;;;;4.20;2.40;;;19.20;99.90;;;;;;5019411;28;20065;-79
2021/10/04 12:56:22;;;;;;;2.20;2.00;;;19.30;99.90;;;;;;5015772;28;20117;-78
2021/10/04 12:59:00;;;;;;;4.20;2.30;;;19.30;99.90;;;;;;5015402;28;20077;-78
2021/10/04 13:01:29;;;;;;;2.00;1.80;;;19.30;99.90;;;;;;5015650;28;20125;-79
2021/10/04 13:04:00;;;;;;;4.10;2.22;;;19.30;99.90;;;;;;5014609;28;20072;-79
2021/10/04 13:06:29;;;;;;;2.80;1.90;;;19.30;99.90;;;;;;5013973;28;20062;-78
2021/10/04 13:08:56;;;;;;;6.25;2.40;;;19.40;99.90;;;;;;5014160;28;20457;-78
2021/10/04 13:11:24;;;;;;;12.57;3.67;;;19.40;99.90;;;;;;5015542;28;20534;-78
2021/10/04 13:13:51;;;;;;;5.57;2.13;;;19.40;99.90;;;;;;5015519;28;20701;-78
2021/10/04 13:16:18;;;;;;;5.28;3.10;;;19.30;99.90;;;;;;5016601;28;20080;-80
2021/10/04 13:18:45;;;;;;;8.18;2.67;;;19.30;99.90;;;;;;5015446;28;20109;-80
2021/10/04 13:21:13;;;;;;;4.90;2.85;;;19.20;99.90;;;;;;5015949;28;20050;-80